sensor_id;sensor_type;location;lat;lon;timestamp;pressure;altitude;pressure_sealevel;temperature;humidity
24336;BME280;33098;52.400;16.880;2023-02-03T00:00:58;101440.61;;;0.44;91.23
24336;BME280;33098;52.400;16.880;2023-02-03T00:03:30;101438.11;;;0.38;91.14
24336;BME280;33098;52.400;16.880;2023-02-03T00:05:57;101437.76;;;0.39;91.27
24336;BME280;33098;52.400;16.880;2023-02-03T00:08:24;101441.35;;;0.42;91.52
24336;BME280;33098;52.400;16.880;2023-02-03T00:10:50;101442.69;;;0.45;91.47
24336;BME280;33098;52.400;16.880;2023-02-03T00:13:17;101440.60;;;0.44;91.55
24336;BME280;33098;52.400;16.880;2023-02-03T00:15:44;101438.35;;;0.52;91.89
24336;BME280;33098;52.400;16.880;2023-02-03T00:18:10;101436.04;;;0.62;92.11
24336;BME280;33098;52.400;16.880;2023-02-03T00:20:39;101436.19;;;0.64;91.87
24336;BME280;33098;52.400;16.880;2023-02-03T00:23:07;101427.44;;;0.65;91.88
24336;BME280;33098;52.400;16.880;2023-02-03T00:25:35;101424.36;;;0.61;91.72
24336;BME280;33098;52.400;16.880;2023-02-03T00:28:03;101423.97;;;0.63;91.81
24336;BME280;33098;52.400;16.880;2023-02-03T00:30:33;101421.41;;;0.60;91.60
24336;BME280;33098;52.400;16.880;2023-02-03T00:33:01;101418.58;;;0.54;91.54
24336;BME280;33098;52.400;16.880;2023-02-03T00:35:28;101415.72;;;0.48;91.42
24336;BME280;33098;52.400;16.880;2023-02-03T00:37:56;101408.05;;;0.48;91.75
24336;BME280;33098;52.400;16.880;2023-02-03T00:40:25;101407.30;;;0.50;91.75
24336;BME280;33098;52.400;16.880;2023-02-03T00:42:51;101408.66;;;0.52;92.00
24336;BME280;33098;52.400;16.880;2023-02-03T00:45:19;101408.34;;;0.51;91.91
24336;BME280;33098;52.400;16.880;2023-02-03T00:47:45;101402.42;;;0.49;92.09
24336;BME280;33098;52.400;16.880;2023-02-03T00:50:13;101395.52;;;0.54;92.20
24336;BME280;33098;52.400;16.880;2023-02-03T00:52:42;101387.67;;;0.53;92.28
24336;BME280;33098;52.400;16.880;2023-02-03T00:55:08;101383.02;;;0.50;92.26
24336;BME280;33098;52.400;16.880;2023-02-03T00:57:35;101371.57;;;0.46;92.27
24336;BME280;33098;52.400;16.880;2023-02-03T01:00:03;101362.64;;;0.47;92.37
24336;BME280;33098;52.400;16.880;2023-02-03T01:02:30;101357.23;;;0.47;92.71
24336;BME280;33098;52.400;16.880;2023-02-03T01:04:56;101353.94;;;0.46;92.54
24336;BME280;33098;52.400;16.880;2023-02-03T01:07:24;101352.50;;;0.48;92.81
24336;BME280;33098;52.400;16.880;2023-02-03T01:09:51;101350.22;;;0.49;92.75
24336;BME280;33098;52.400;16.880;2023-02-03T01:12:17;101342.89;;;0.41;92.71
24336;BME280;33098;52.400;16.880;2023-02-03T01:14:44;101326.12;;;0.40;92.78
24336;BME280;33098;52.400;16.880;2023-02-03T01:17:13;101315.98;;;0.40;92.90
24336;BME280;33098;52.400;16.880;2023-02-03T01:19:39;101305.96;;;0.44;93.15
24336;BME280;33098;52.400;16.880;2023-02-03T01:22:06;101294.45;;;0.52;93.19
24336;BME280;33098;52.400;16.880;2023-02-03T01:24:32;101292.77;;;0.56;93.38
24336;BME280;33098;52.400;16.880;2023-02-03T01:26:59;101290.36;;;0.69;93.64
24336;BME280;33098;52.400;16.880;2023-02-03T01:29:27;101282.17;;;0.75;93.62
24336;BME280;33098;52.400;16.880;2023-02-03T01:31:54;101282.04;;;0.67;93.27
24336;BME280;33098;52.400;16.880;2023-02-03T01:34:21;101274.48;;;0.61;93.04
24336;BME280;33098;52.400;16.880;2023-02-03T01:36:48;101269.95;;;0.53;92.78
24336;BME280;33098;52.400;16.880;2023-02-03T01:39:14;101266.36;;;0.49;92.73
24336;BME280;33098;52.400;16.880;2023-02-03T01:41:41;101270.58;;;0.48;93.13
24336;BME280;33098;52.400;16.880;2023-02-03T01:52:34;101290.75;;;0.45;93.28
24336;BME280;33098;52.400;16.880;2023-02-03T01:55:04;101299.61;;;0.47;93.24
24336;BME280;33098;52.400;16.880;2023-02-03T01:57:38;101290.60;;;0.52;93.63
24336;BME280;33098;52.400;16.880;2023-02-03T02:00:12;101285.27;;;0.56;93.62
24336;BME280;33098;52.400;16.880;2023-02-03T02:02:43;101284.51;;;0.58;93.73
24336;BME280;33098;52.400;16.880;2023-02-03T02:05:31;101285.19;;;0.60;93.45
24336;BME280;33098;52.400;16.880;2023-02-03T02:08:01;101270.35;;;0.58;93.48
24336;BME280;33098;52.400;16.880;2023-02-03T02:10:30;101269.04;;;0.62;93.76
24336;BME280;33098;52.400;16.880;2023-02-03T02:12:57;101262.46;;;0.67;93.75
24336;BME280;33098;52.400;16.880;2023-02-03T02:15:43;101254.70;;;0.63;93.50
24336;BME280;33098;52.400;16.880;2023-02-03T02:29:53;101210.88;;;0.40;93.58
24336;BME280;33098;52.400;16.880;2023-02-03T02:41:10;101158.41;;;0.36;94.03
24336;BME280;33098;52.400;16.880;2023-02-03T02:43:55;101159.27;;;0.29;93.83
24336;BME280;33098;52.400;16.880;2023-02-03T02:46:31;101155.98;;;0.28;94.02
24336;BME280;33098;52.400;16.880;2023-02-03T02:49:08;101157.55;;;0.28;93.99
24336;BME280;33098;52.400;16.880;2023-02-03T02:51:37;101159.13;;;0.28;94.30
24336;BME280;33098;52.400;16.880;2023-02-03T02:54:09;101155.61;;;0.29;94.44
24336;BME280;33098;52.400;16.880;2023-02-03T02:56:38;101154.17;;;0.31;94.54
24336;BME280;33098;52.400;16.880;2023-02-03T02:59:06;101151.02;;;0.31;94.40
24336;BME280;33098;52.400;16.880;2023-02-03T03:01:33;101148.48;;;0.42;94.84
24336;BME280;33098;52.400;16.880;2023-02-03T03:04:03;101154.34;;;0.52;95.18
24336;BME280;33098;52.400;16.880;2023-02-03T03:06:43;101151.23;;;0.58;95.15
24336;BME280;33098;52.400;16.880;2023-02-03T03:09:20;101146.30;;;0.60;95.04
24336;BME280;33098;52.400;16.880;2023-02-03T03:11:52;101136.65;;;0.74;95.35
24336;BME280;33098;52.400;16.880;2023-02-03T03:14:22;101124.58;;;0.88;95.56
24336;BME280;33098;52.400;16.880;2023-02-03T03:16:56;101117.62;;;0.93;95.18
24336;BME280;33098;52.400;16.880;2023-02-03T03:19:29;101112.40;;;0.86;94.85
24336;BME280;33098;52.400;16.880;2023-02-03T03:22:01;101109.64;;;0.85;94.66
24336;BME280;33098;52.400;16.880;2023-02-03T03:24:51;101103.60;;;0.95;94.82
24336;BME280;33098;52.400;16.880;2023-02-03T03:27:23;101101.21;;;0.99;94.64
24336;BME280;33098;52.400;16.880;2023-02-03T03:29:54;101097.32;;;1.00;94.70
24336;BME280;33098;52.400;16.880;2023-02-03T03:32:23;101097.72;;;1.05;94.56
24336;BME280;33098;52.400;16.880;2023-02-03T03:34:51;101084.98;;;1.10;94.56
24336;BME280;33098;52.400;16.880;2023-02-03T03:37:30;101080.58;;;1.11;94.41
24336;BME280;33098;52.400;16.880;2023-02-03T03:40:05;101075.69;;;1.23;94.52
24336;BME280;33098;52.400;16.880;2023-02-03T03:42:50;101082.80;;;1.31;94.62
24336;BME280;33098;52.400;16.880;2023-02-03T03:45:23;101079.56;;;1.39;94.62
24336;BME280;33098;52.400;16.880;2023-02-03T03:50:33;101064.85;;;1.40;93.87
24336;BME280;33098;52.400;16.880;2023-02-03T03:53:04;101055.61;;;1.39;93.77
24336;BME280;33098;52.400;16.880;2023-02-03T03:55:34;101048.23;;;1.40;93.77
24336;BME280;33098;52.400;16.880;2023-02-03T03:58:09;101037.21;;;1.46;93.83
24336;BME280;33098;52.400;16.880;2023-02-03T04:00:39;101033.79;;;1.49;93.68
24336;BME280;33098;52.400;16.880;2023-02-03T04:03:16;101031.77;;;1.58;93.64
24336;BME280;33098;52.400;16.880;2023-02-03T04:05:45;101033.05;;;1.56;93.36
24336;BME280;33098;52.400;16.880;2023-02-03T04:08:12;101030.48;;;1.54;93.12
24336;BME280;33098;52.400;16.880;2023-02-03T04:10:41;101017.99;;;1.57;93.16
24336;BME280;33098;52.400;16.880;2023-02-03T04:13:09;101017.42;;;1.58;92.94
24336;BME280;33098;52.400;16.880;2023-02-03T04:15:36;101011.73;;;1.56;92.76
24336;BME280;33098;52.400;16.880;2023-02-03T04:18:03;101007.94;;;1.53;92.54
24336;BME280;33098;52.400;16.880;2023-02-03T04:20:31;101004.96;;;1.54;92.50
24336;BME280;33098;52.400;16.880;2023-02-03T04:22:58;101002.88;;;1.53;92.33
24336;BME280;33098;52.400;16.880;2023-02-03T04:25:25;100999.48;;;1.50;92.31
24336;BME280;33098;52.400;16.880;2023-02-03T04:27:52;100996.89;;;1.43;92.29
24336;BME280;33098;52.400;16.880;2023-02-03T04:30:18;100993.42;;;1.48;92.28
24336;BME280;33098;52.400;16.880;2023-02-03T04:32:45;100984.82;;;1.49;92.13
24336;BME280;33098;52.400;16.880;2023-02-03T04:35:14;100976.67;;;1.46;92.03
24336;BME280;33098;52.400;16.880;2023-02-03T04:37:43;100970.16;;;1.42;91.97
24336;BME280;33098;52.400;16.880;2023-02-03T04:40:11;100962.58;;;1.39;91.96
24336;BME280;33098;52.400;16.880;2023-02-03T04:42:38;100956.97;;;1.44;92.03
24336;BME280;33098;52.400;16.880;2023-02-03T04:45:07;100954.09;;;1.47;92.18
24336;BME280;33098;52.400;16.880;2023-02-03T04:47:34;100948.70;;;1.52;92.13
24336;BME280;33098;52.400;16.880;2023-02-03T04:50:00;100940.77;;;1.54;92.15
24336;BME280;33098;52.400;16.880;2023-02-03T04:52:27;100936.05;;;1.53;91.74
24336;BME280;33098;52.400;16.880;2023-02-03T04:54:54;100927.47;;;1.48;91.70
24336;BME280;33098;52.400;16.880;2023-02-03T04:57:21;100920.16;;;1.47;91.84
24336;BME280;33098;52.400;16.880;2023-02-03T04:59:47;100922.20;;;1.33;91.26
24336;BME280;33098;52.400;16.880;2023-02-03T05:02:13;100914.91;;;1.26;91.11
24336;BME280;33098;52.400;16.880;2023-02-03T05:04:40;100906.52;;;1.26;91.49
24336;BME280;33098;52.400;16.880;2023-02-03T05:07:07;100906.41;;;1.24;91.65
24336;BME280;33098;52.400;16.880;2023-02-03T05:09:33;100904.36;;;1.22;91.50
24336;BME280;33098;52.400;16.880;2023-02-03T05:12:00;100903.23;;;1.13;91.23
24336;BME280;33098;52.400;16.880;2023-02-03T05:14:26;100898.79;;;1.16;91.71
24336;BME280;33098;52.400;16.880;2023-02-03T05:17:13;100894.53;;;1.12;91.68
24336;BME280;33098;52.400;16.880;2023-02-03T05:19:40;100891.12;;;1.10;91.89
24336;BME280;33098;52.400;16.880;2023-02-03T05:22:07;100884.54;;;1.24;92.54
24336;BME280;33098;52.400;16.880;2023-02-03T05:24:33;100880.77;;;1.21;92.37
24336;BME280;33098;52.400;16.880;2023-02-03T05:27:00;100870.45;;;1.17;92.26
24336;BME280;33098;52.400;16.880;2023-02-03T05:29:26;100856.02;;;1.19;92.71
24336;BME280;33098;52.400;16.880;2023-02-03T05:31:59;100849.95;;;1.18;92.94
24336;BME280;33098;52.400;16.880;2023-02-03T05:34:26;100844.94;;;1.26;93.39
24336;BME280;33098;52.400;16.880;2023-02-03T05:36:52;100850.09;;;1.29;93.64
24336;BME280;33098;52.400;16.880;2023-02-03T05:39:23;100844.26;;;1.31;93.68
24336;BME280;33098;52.400;16.880;2023-02-03T05:41:50;100835.84;;;1.37;94.10
24336;BME280;33098;52.400;16.880;2023-02-03T05:44:21;100831.08;;;1.44;94.52
24336;BME280;33098;52.400;16.880;2023-02-03T05:46:49;100817.80;;;1.53;94.61
24336;BME280;33098;52.400;16.880;2023-02-03T05:49:16;100813.34;;;1.61;94.69
24336;BME280;33098;52.400;16.880;2023-02-03T05:51:43;100810.98;;;1.58;94.89
24336;BME280;33098;52.400;16.880;2023-02-03T05:54:09;100808.17;;;1.48;94.62
24336;BME280;33098;52.400;16.880;2023-02-03T05:56:36;100806.98;;;1.47;94.93
24336;BME280;33098;52.400;16.880;2023-02-03T05:59:03;100804.94;;;1.56;95.12
24336;BME280;33098;52.400;16.880;2023-02-03T06:01:31;100800.35;;;1.52;95.28
24336;BME280;33098;52.400;16.880;2023-02-03T06:03:59;100799.66;;;1.56;95.46
24336;BME280;33098;52.400;16.880;2023-02-03T06:06:27;100795.45;;;1.57;95.84
24336;BME280;33098;52.400;16.880;2023-02-03T06:09:03;100788.77;;;1.48;95.76
24336;BME280;33098;52.400;16.880;2023-02-03T06:11:30;100788.02;;;1.49;96.20
24336;BME280;33098;52.400;16.880;2023-02-03T06:13:58;100783.44;;;1.55;96.44
24336;BME280;33098;52.400;16.880;2023-02-03T06:16:26;100780.79;;;1.56;96.49
24336;BME280;33098;52.400;16.880;2023-02-03T06:18:54;100780.25;;;1.57;96.56
24336;BME280;33098;52.400;16.880;2023-02-03T06:21:24;100776.80;;;1.60;97.04
24336;BME280;33098;52.400;16.880;2023-02-03T06:23:51;100768.17;;;1.71;97.38
24336;BME280;33098;52.400;16.880;2023-02-03T06:26:18;100762.48;;;1.73;97.46
24336;BME280;33098;52.400;16.880;2023-02-03T06:28:44;100744.38;;;1.76;97.68
24336;BME280;33098;52.400;16.880;2023-02-03T06:31:11;100740.45;;;1.78;97.82
24336;BME280;33098;52.400;16.880;2023-02-03T06:33:37;100734.08;;;1.89;97.98
24336;BME280;33098;52.400;16.880;2023-02-03T06:36:07;100728.85;;;1.93;97.92
24336;BME280;33098;52.400;16.880;2023-02-03T06:38:34;100714.17;;;1.88;97.83
24336;BME280;33098;52.400;16.880;2023-02-03T06:41:00;100713.12;;;1.84;97.85
24336;BME280;33098;52.400;16.880;2023-02-03T06:43:27;100707.58;;;1.87;97.98
24336;BME280;33098;52.400;16.880;2023-02-03T06:45:54;100693.80;;;1.85;98.07
24336;BME280;33098;52.400;16.880;2023-02-03T06:48:21;100681.70;;;1.90;98.43
24336;BME280;33098;52.400;16.880;2023-02-03T06:50:47;100672.21;;;2.00;98.64
24336;BME280;33098;52.400;16.880;2023-02-03T06:53:28;100662.27;;;2.04;98.75
24336;BME280;33098;52.400;16.880;2023-02-03T06:55:54;100663.09;;;2.01;98.47
24336;BME280;33098;52.400;16.880;2023-02-03T06:58:21;100654.20;;;2.00;98.41
24336;BME280;33098;52.400;16.880;2023-02-03T07:00:47;100645.30;;;1.94;98.46
24336;BME280;33098;52.400;16.880;2023-02-03T07:03:14;100633.64;;;1.97;98.64
24336;BME280;33098;52.400;16.880;2023-02-03T07:05:40;100627.94;;;1.96;98.60
24336;BME280;33098;52.400;16.880;2023-02-03T07:08:07;100615.25;;;1.93;98.97
24336;BME280;33098;52.400;16.880;2023-02-03T07:10:34;100613.77;;;1.82;98.83
24336;BME280;33098;52.400;16.880;2023-02-03T07:13:02;100600.77;;;1.79;99.11
24336;BME280;33098;52.400;16.880;2023-02-03T07:15:30;100594.50;;;1.87;99.33
24336;BME280;33098;52.400;16.880;2023-02-03T07:17:56;100586.13;;;1.90;99.76
24336;BME280;33098;52.400;16.880;2023-02-03T07:20:24;100576.84;;;1.87;99.61
24336;BME280;33098;52.400;16.880;2023-02-03T07:22:55;100567.25;;;1.81;99.92
24336;BME280;33098;52.400;16.880;2023-02-03T07:25:23;100563.54;;;1.82;99.92
24336;BME280;33098;52.400;16.880;2023-02-03T07:27:50;100551.60;;;1.87;100.00
24336;BME280;33098;52.400;16.880;2023-02-03T07:30:17;100545.23;;;1.89;100.00
24336;BME280;33098;52.400;16.880;2023-02-03T07:32:47;100537.39;;;1.97;100.00
24336;BME280;33098;52.400;16.880;2023-02-03T07:35:15;100528.09;;;2.02;100.00
24336;BME280;33098;52.400;16.880;2023-02-03T07:37:42;100520.85;;;2.03;100.00
24336;BME280;33098;52.400;16.880;2023-02-03T07:40:11;100516.16;;;2.02;100.00
24336;BME280;33098;52.400;16.880;2023-02-03T07:42:45;100513.34;;;2.07;100.00
24336;BME280;33098;52.400;16.880;2023-02-03T07:45:13;100502.92;;;2.08;100.00
24336;BME280;33098;52.400;16.880;2023-02-03T07:47:41;100501.69;;;2.05;100.00
24336;BME280;33098;52.400;16.880;2023-02-03T07:50:12;100496.79;;;2.01;100.00
24336;BME280;33098;52.400;16.880;2023-02-03T07:52:39;100488.36;;;2.05;100.00
24336;BME280;33098;52.400;16.880;2023-02-03T07:55:06;100477.09;;;2.02;100.00
24336;BME280;33098;52.400;16.880;2023-02-03T07:57:33;100465.17;;;2.03;100.00
24336;BME280;33098;52.400;16.880;2023-02-03T07:59:59;100462.19;;;1.95;100.00
24336;BME280;33098;52.400;16.880;2023-02-03T08:02:26;100451.23;;;1.86;100.00
24336;BME280;33098;52.400;16.880;2023-02-03T08:04:53;100438.86;;;1.80;100.00
24336;BME280;33098;52.400;16.880;2023-02-03T08:07:19;100427.95;;;1.86;100.00
24336;BME280;33098;52.400;16.880;2023-02-03T08:09:46;100423.89;;;1.90;100.00
24336;BME280;33098;52.400;16.880;2023-02-03T08:12:12;100420.91;;;1.90;100.00
24336;BME280;33098;52.400;16.880;2023-02-03T08:14:39;100414.27;;;1.90;100.00
24336;BME280;33098;52.400;16.880;2023-02-03T08:17:06;100403.92;;;1.91;100.00
24336;BME280;33098;52.400;16.880;2023-02-03T08:19:32;100404.55;;;1.84;100.00
24336;BME280;33098;52.400;16.880;2023-02-03T08:21:59;100403.70;;;1.79;100.00
24336;BME280;33098;52.400;16.880;2023-02-03T08:24:26;100396.31;;;1.76;100.00
24336;BME280;33098;52.400;16.880;2023-02-03T08:26:52;100390.80;;;1.70;100.00
24336;BME280;33098;52.400;16.880;2023-02-03T08:29:20;100382.08;;;1.61;100.00
24336;BME280;33098;52.400;16.880;2023-02-03T08:31:46;100376.06;;;1.59;100.00
24336;BME280;33098;52.400;16.880;2023-02-03T08:34:13;100373.63;;;1.58;100.00
24336;BME280;33098;52.400;16.880;2023-02-03T08:36:39;100365.10;;;1.57;100.00
24336;BME280;33098;52.400;16.880;2023-02-03T08:39:06;100356.91;;;1.61;100.00
24336;BME280;33098;52.400;16.880;2023-02-03T08:41:35;100346.22;;;1.61;100.00
24336;BME280;33098;52.400;16.880;2023-02-03T08:44:02;100334.98;;;1.62;100.00
24336;BME280;33098;52.400;16.880;2023-02-03T08:46:28;100326.34;;;1.64;100.00
24336;BME280;33098;52.400;16.880;2023-02-03T08:48:55;100320.97;;;1.62;100.00
24336;BME280;33098;52.400;16.880;2023-02-03T08:51:24;100310.27;;;1.63;100.00
24336;BME280;33098;52.400;16.880;2023-02-03T08:53:50;100301.45;;;1.69;100.00
24336;BME280;33098;52.400;16.880;2023-02-03T08:56:17;100286.55;;;1.69;100.00
24336;BME280;33098;52.400;16.880;2023-02-03T08:58:44;100283.79;;;1.76;100.00
24336;BME280;33098;52.400;16.880;2023-02-03T09:01:14;100276.33;;;1.83;100.00
24336;BME280;33098;52.400;16.880;2023-02-03T09:03:41;100270.13;;;1.96;100.00
24336;BME280;33098;52.400;16.880;2023-02-03T09:06:09;100266.62;;;2.00;100.00
24336;BME280;33098;52.400;16.880;2023-02-03T09:08:38;100273.14;;;1.96;100.00
24336;BME280;33098;52.400;16.880;2023-02-03T09:11:13;100266.52;;;1.87;100.00
24336;BME280;33098;52.400;16.880;2023-02-03T09:13:40;100263.34;;;1.80;100.00
24336;BME280;33098;52.400;16.880;2023-02-03T09:16:12;100258.23;;;1.76;100.00
24336;BME280;33098;52.400;16.880;2023-02-03T09:18:39;100238.80;;;1.81;100.00
24336;BME280;33098;52.400;16.880;2023-02-03T09:21:08;100237.33;;;1.90;100.00
24336;BME280;33098;52.400;16.880;2023-02-03T09:23:37;100217.96;;;2.00;100.00
24336;BME280;33098;52.400;16.880;2023-02-03T09:26:05;100202.78;;;1.99;100.00
24336;BME280;33098;52.400;16.880;2023-02-03T09:28:33;100191.02;;;2.04;100.00
24336;BME280;33098;52.400;16.880;2023-02-03T09:31:07;100179.59;;;2.12;100.00
24336;BME280;33098;52.400;16.880;2023-02-03T09:33:34;100168.14;;;2.21;100.00
24336;BME280;33098;52.400;16.880;2023-02-03T09:36:01;100156.65;;;2.20;100.00
24336;BME280;33098;52.400;16.880;2023-02-03T09:38:28;100146.17;;;2.15;100.00
24336;BME280;33098;52.400;16.880;2023-02-03T09:40:59;100140.59;;;2.19;100.00
24336;BME280;33098;52.400;16.880;2023-02-03T09:48:46;100109.02;;;2.20;100.00
24336;BME280;33098;52.400;16.880;2023-02-03T09:52:04;100105.43;;;2.22;100.00
24336;BME280;33098;52.400;16.880;2023-02-03T09:56:38;100080.04;;;2.29;100.00
24336;BME280;33098;52.400;16.880;2023-02-03T09:59:08;100067.96;;;2.32;100.00
24336;BME280;33098;52.400;16.880;2023-02-03T10:01:41;100056.27;;;2.28;100.00
24336;BME280;33098;52.400;16.880;2023-02-03T10:04:27;100052.31;;;2.27;100.00
24336;BME280;33098;52.400;16.880;2023-02-03T10:09:57;100025.21;;;2.29;100.00
24336;BME280;33098;52.400;16.880;2023-02-03T10:12:45;100011.48;;;2.37;100.00
24336;BME280;33098;52.400;16.880;2023-02-03T10:15:40;100002.79;;;2.36;100.00
24336;BME280;33098;52.400;16.880;2023-02-03T10:18:20;99984.13;;;2.34;100.00
24336;BME280;33098;52.400;16.880;2023-02-03T10:20:57;99966.92;;;2.42;100.00
24336;BME280;33098;52.400;16.880;2023-02-03T10:23:37;99960.23;;;2.39;100.00
24336;BME280;33098;52.400;16.880;2023-02-03T10:26:10;99940.77;;;2.47;100.00
24336;BME280;33098;52.400;16.880;2023-02-03T10:28:44;99937.67;;;2.56;100.00
24336;BME280;33098;52.400;16.880;2023-02-03T10:31:17;99928.70;;;2.57;100.00
24336;BME280;33098;52.400;16.880;2023-02-03T10:33:48;99914.77;;;2.51;100.00
24336;BME280;33098;52.400;16.880;2023-02-03T10:36:22;99906.19;;;2.49;100.00
24336;BME280;33098;52.400;16.880;2023-02-03T10:39:06;99895.01;;;2.40;100.00
24336;BME280;33098;52.400;16.880;2023-02-03T10:41:38;99876.83;;;2.43;100.00
24336;BME280;33098;52.400;16.880;2023-02-03T10:44:06;99872.60;;;2.41;100.00
24336;BME280;33098;52.400;16.880;2023-02-03T10:46:39;99865.73;;;2.38;100.00
24336;BME280;33098;52.400;16.880;2023-02-03T10:49:09;99854.30;;;2.42;100.00
24336;BME280;33098;52.400;16.880;2023-02-03T10:51:47;99844.88;;;2.44;100.00
24336;BME280;33098;52.400;16.880;2023-02-03T10:54:31;99833.73;;;2.47;100.00
24336;BME280;33098;52.400;16.880;2023-02-03T10:57:10;99819.68;;;2.48;100.00
24336;BME280;33098;52.400;16.880;2023-02-03T10:59:42;99816.51;;;2.48;100.00
24336;BME280;33098;52.400;16.880;2023-02-03T11:02:22;99805.75;;;2.53;100.00
24336;BME280;33098;52.400;16.880;2023-02-03T11:07:43;99787.41;;;2.64;100.00
24336;BME280;33098;52.400;16.880;2023-02-03T11:10:26;99781.24;;;2.68;100.00
24336;BME280;33098;52.400;16.880;2023-02-03T11:13:23;99775.74;;;2.72;100.00
24336;BME280;33098;52.400;16.880;2023-02-03T11:15:54;99769.23;;;2.78;100.00
24336;BME280;33098;52.400;16.880;2023-02-03T11:18:52;99756.45;;;2.85;100.00
24336;BME280;33098;52.400;16.880;2023-02-03T11:21:31;99748.92;;;2.85;100.00
24336;BME280;33098;52.400;16.880;2023-02-03T11:24:25;99743.57;;;2.93;100.00
24336;BME280;33098;52.400;16.880;2023-02-03T11:26:57;99732.25;;;3.03;100.00
24336;BME280;33098;52.400;16.880;2023-02-03T11:29:29;99722.81;;;3.06;100.00
24336;BME280;33098;52.400;16.880;2023-02-03T11:32:41;99713.69;;;3.05;100.00
24336;BME280;33098;52.400;16.880;2023-02-03T11:35:00;99707.27;;;3.08;100.00
24336;BME280;33098;52.400;16.880;2023-02-03T11:37:34;99697.07;;;3.11;100.00
24336;BME280;33098;52.400;16.880;2023-02-03T11:42:57;99689.81;;;3.27;100.00
24336;BME280;33098;52.400;16.880;2023-02-03T11:50:32;99683.69;;;3.33;100.00
24336;BME280;33098;52.400;16.880;2023-02-03T11:59:25;99663.08;;;3.46;100.00
24336;BME280;33098;52.400;16.880;2023-02-03T12:21:26;99646.83;;;3.90;100.00
24336;BME280;33098;52.400;16.880;2023-02-03T12:24:00;99642.70;;;4.00;100.00
24336;BME280;33098;52.400;16.880;2023-02-03T12:26:55;99633.81;;;4.09;100.00
24336;BME280;33098;52.400;16.880;2023-02-03T12:29:37;99625.74;;;4.23;100.00
24336;BME280;33098;52.400;16.880;2023-02-03T12:32:13;99631.05;;;4.36;100.00
24336;BME280;33098;52.400;16.880;2023-02-03T12:35:22;99625.33;;;4.51;100.00
24336;BME280;33098;52.400;16.880;2023-02-03T12:38:27;99614.86;;;4.65;100.00
24336;BME280;33098;52.400;16.880;2023-02-03T12:40:53;99606.38;;;4.77;100.00
24336;BME280;33098;52.400;16.880;2023-02-03T12:43:42;99606.82;;;4.86;100.00
24336;BME280;33098;52.400;16.880;2023-02-03T12:46:22;99614.11;;;4.95;100.00
24336;BME280;33098;52.400;16.880;2023-02-03T12:51:38;99613.27;;;5.12;100.00
24336;BME280;33098;52.400;16.880;2023-02-03T12:57:10;99624.94;;;5.22;100.00
24336;BME280;33098;52.400;16.880;2023-02-03T12:59:41;99636.54;;;5.24;100.00
24336;BME280;33098;52.400;16.880;2023-02-03T13:02:26;99636.36;;;5.30;100.00
24336;BME280;33098;52.400;16.880;2023-02-03T13:05:01;99637.85;;;5.33;100.00
24336;BME280;33098;52.400;16.880;2023-02-03T13:08:03;99643.41;;;5.37;100.00
24336;BME280;33098;52.400;16.880;2023-02-03T13:13:36;99653.92;;;5.43;100.00
24336;BME280;33098;52.400;16.880;2023-02-03T13:16:09;99653.38;;;5.45;100.00
24336;BME280;33098;52.400;16.880;2023-02-03T13:18:41;99649.69;;;5.45;100.00
24336;BME280;33098;52.400;16.880;2023-02-03T13:21:11;99658.09;;;5.41;100.00
24336;BME280;33098;52.400;16.880;2023-02-03T13:23:42;99653.46;;;5.34;100.00
24336;BME280;33098;52.400;16.880;2023-02-03T13:26:23;99649.61;;;5.36;100.00
24336;BME280;33098;52.400;16.880;2023-02-03T13:40:34;99666.98;;;5.47;100.00
24336;BME280;33098;52.400;16.880;2023-02-03T13:43:11;99672.20;;;5.46;100.00
24336;BME280;33098;52.400;16.880;2023-02-03T13:45:45;99680.00;;;5.45;100.00
24336;BME280;33098;52.400;16.880;2023-02-03T13:48:20;99688.46;;;5.47;100.00
24336;BME280;33098;52.400;16.880;2023-02-03T13:51:12;99699.60;;;5.49;100.00
24336;BME280;33098;52.400;16.880;2023-02-03T13:53:42;99711.05;;;5.54;100.00
24336;BME280;33098;52.400;16.880;2023-02-03T13:58:58;99716.97;;;5.52;100.00
24336;BME280;33098;52.400;16.880;2023-02-03T14:01:35;99714.81;;;5.50;100.00
24336;BME280;33098;52.400;16.880;2023-02-03T14:04:07;99710.55;;;5.46;100.00
24336;BME280;33098;52.400;16.880;2023-02-03T14:09:33;99721.61;;;5.44;100.00
24336;BME280;33098;52.400;16.880;2023-02-03T14:11:51;99732.77;;;5.42;100.00
24336;BME280;33098;52.400;16.880;2023-02-03T14:16:51;99727.88;;;5.32;100.00
24336;BME280;33098;52.400;16.880;2023-02-03T14:22:02;99725.48;;;5.33;100.00
24336;BME280;33098;52.400;16.880;2023-02-03T14:24:33;99723.92;;;5.30;100.00
24336;BME280;33098;52.400;16.880;2023-02-03T14:27:05;99722.92;;;5.27;100.00
24336;BME280;33098;52.400;16.880;2023-02-03T14:29:41;99724.02;;;5.23;100.00
24336;BME280;33098;52.400;16.880;2023-02-03T14:32:10;99725.66;;;5.25;100.00
24336;BME280;33098;52.400;16.880;2023-02-03T14:34:42;99725.09;;;5.29;100.00
24336;BME280;33098;52.400;16.880;2023-02-03T14:48:04;99716.55;;;5.46;100.00
24336;BME280;33098;52.400;16.880;2023-02-03T15:02:16;99746.88;;;5.55;100.00
24336;BME280;33098;52.400;16.880;2023-02-03T15:04:46;99756.48;;;5.59;100.00
24336;BME280;33098;52.400;16.880;2023-02-03T15:07:33;99757.23;;;5.55;100.00
24336;BME280;33098;52.400;16.880;2023-02-03T15:10:01;99758.05;;;5.51;100.00
24336;BME280;33098;52.400;16.880;2023-02-03T15:12:34;99763.77;;;5.55;100.00
24336;BME280;33098;52.400;16.880;2023-02-03T15:15:34;99764.16;;;5.54;100.00
24336;BME280;33098;52.400;16.880;2023-02-03T15:18:27;99762.27;;;5.49;100.00
24336;BME280;33098;52.400;16.880;2023-02-03T15:20:55;99762.33;;;5.48;100.00